Time;durP1;ratioP1;P1;durP2;ratioP2;P2;SDS_P1;SDS_P2;PMS_P1;PMS_P2;Temp;Humidity;BMP_temperature;BMP_pressure;BME280_temperature;BME280_humidity;BME280_pressure;Samples;Min_cycle;Max_cycle;Signal;HPM_P1;HPM_P2
2022/03/12 00:01:05;;;;;;;12.05;10.85;;;;;;;6.13;45.71;98812.78;5015122;27;104260;-71
2022/03/12 00:03:34;;;;;;;10.57;9.50;;;;;;;6.52;45.18;98820.31;5010332;27;102610;-68
2022/03/12 00:06:03;;;;;;;12.75;11.52;;;;;;;6.18;45.17;98822.09;5022181;27;103877;-69
2022/03/12 00:08:42;;;;;;;14.57;11.68;;;;;;;5.23;47.38;98822.59;5011998;27;104146;-71
2022/03/12 00:11:12;;;;;;;12.30;11.20;;;;;;;5.95;46.37;98832.94;5015630;27;103155;-71
2022/03/12 00:13:40;;;;;;;12.97;11.17;;;;;;;5.91;46.40;98827.94;5017492;27;104206;-69
2022/03/12 00:16:13;;;;;;;13.48;11.43;;;;;;;5.37;46.74;98824.53;5013788;27;103706;-69
2022/03/12 00:18:42;;;;;;;13.07;11.77;;;;;;;5.32;47.27;98833.53;5022910;27;103229;-71
2022/03/12 00:21:12;;;;;;;15.73;11.70;;;;;;;5.34;46.69;98829.06;5021220;27;103280;-70
2022/03/12 00:23:45;;;;;;;13.80;11.83;;;;;;;4.84;48.13;98832.34;5014190;27;103077;-70
2022/03/12 00:26:15;;;;;;;13.07;11.40;;;;;;;5.25;47.33;98832.97;5022794;27;103821;-70
2022/03/12 00:28:44;;;;;;;13.27;11.10;;;;;;;5.16;47.65;98834.28;5019616;27;103722;-70
2022/03/12 00:31:14;;;;;;;13.07;11.77;;;;;;;5.19;47.73;98841.97;5013948;27;102799;-70
2022/03/12 00:33:42;;;;;;;11.25;10.25;;;;;;;5.97;45.78;98843.38;5014777;27;103940;-70
2022/03/12 00:36:11;;;;;;;9.65;8.80;;;;;;;6.38;45.73;98844.66;5011027;27;103901;-70
2022/03/12 00:38:40;;;;;;;9.02;8.23;;;;;;;6.62;45.77;98838.13;5012522;27;103195;-70
2022/03/12 00:41:11;;;;;;;12.50;11.27;;;;;;;6.16;46.70;98842.34;5015938;27;103273;-70
2022/03/12 00:43:39;;;;;;;12.65;11.43;;;;;;;5.20;47.71;98834.97;5006363;27;102652;-70
2022/03/12 00:46:07;;;;;;;13.15;11.65;;;;;;;5.01;48.03;98840.25;5017879;27;102696;-70
2022/03/12 00:48:36;;;;;;;12.07;10.97;;;;;;;5.36;47.95;98848.19;5009475;27;103949;-70
2022/03/12 00:51:06;;;;;;;11.50;10.48;;;;;;;5.75;47.08;98843.59;5012269;27;103445;-70
2022/03/12 00:53:35;;;;;;;11.27;10.15;;;;;;;6.18;46.25;98837.84;5018721;27;102763;-70
2022/03/12 00:56:07;;;;;;;12.27;10.50;;;;;;;6.28;45.67;98836.47;5013698;27;104110;-70
2022/03/12 00:58:35;;;;;;;12.27;10.98;;;;;;;6.11;45.48;98846.97;5017950;27;105344;-71
2022/03/12 01:01:04;;;;;;;12.40;11.05;;;;;;;5.96;45.55;98839.03;5017514;27;102989;-70
2022/03/12 01:03:32;;;;;;;13.35;10.95;;;;;;;5.42;46.43;98834.78;5007649;27;103298;-70
2022/03/12 01:06:04;;;;;;;12.68;11.13;;;;;;;5.09;47.27;98826.78;5015781;27;103709;-70
2022/03/12 01:08:33;;;;;;;13.13;10.82;;;;;;;5.03;47.56;98835.78;5019289;27;104214;-70
2022/03/12 01:11:04;;;;;;;11.82;10.57;;;;;;;5.03;47.20;98838.41;5025141;27;103207;-70
2022/03/12 01:13:32;;;;;;;13.65;10.90;;;;;;;4.94;47.41;98833.59;5017982;27;103942;-70
2022/03/12 01:16:01;;;;;;;12.33;10.40;;;;;;;4.75;47.62;98831.91;5016857;27;103743;-70
2022/03/12 01:18:31;;;;;;;11.38;10.25;;;;;;;5.00;47.38;98830.69;5017307;27;103704;-70
2022/03/12 01:21:08;;;;;;;14.55;11.15;;;;;;;5.25;46.96;98833.81;5018672;27;103227;-70
2022/03/12 01:23:38;;;;;;;11.82;10.43;;;;;;;5.49;46.31;98831.78;5020899;27;102970;-70
2022/03/12 01:26:06;;;;;;;11.90;10.60;;;;;;;5.21;46.41;98821.81;5014920;27;102967;-70
2022/03/12 01:28:34;;;;;;;11.70;10.18;;;;;;;4.87;47.14;98834.81;5027109;27;104142;-70
2022/03/12 01:31:04;;;;;;;11.88;9.73;;;;;;;4.87;47.16;98832.19;5019684;27;103602;-70
2022/03/12 01:33:32;;;;;;;11.43;10.00;;;;;;;4.71;47.57;98826.00;5015749;27;103147;-70
2022/03/12 01:36:02;;;;;;;11.73;9.70;;;;;;;4.87;47.25;98834.81;5010955;27;103911;-70
2022/03/12 01:38:36;;;;;;;10.88;9.85;;;;;;;5.14;46.55;98835.25;5022015;27;103214;-70
2022/03/12 01:41:04;;;;;;;10.77;9.68;;;;;;;5.32;46.16;98836.16;5015254;27;103156;-70
2022/03/12 01:43:33;;;;;;;10.95;9.93;;;;;;;5.71;45.63;98840.28;5016764;27;102587;-70
2022/03/12 01:46:01;;;;;;;11.50;10.32;;;;;;;5.37;45.94;98842.00;5020289;27;103019;-70
2022/03/12 01:48:30;;;;;;;11.05;9.95;;;;;;;5.40;46.03;98837.47;5025961;27;102889;-70
2022/03/12 01:50:59;;;;;;;11.10;9.90;;;;;;;5.27;46.29;98841.63;5020161;27;103198;-70
2022/03/12 01:53:28;;;;;;;10.95;9.73;;;;;;;5.53;45.65;98848.22;5024195;27;102838;-70
2022/03/12 01:55:56;;;;;;;10.90;9.90;;;;;;;5.81;45.58;98840.66;5023660;27;104034;-70
2022/03/12 01:58:25;;;;;;;11.15;9.95;;;;;;;6.00;44.79;98838.81;5017514;27;104479;-70
2022/03/12 02:00:54;;;;;;;11.07;9.97;;;;;;;6.00;45.33;98830.94;5017527;27;103194;-70
2022/03/12 02:03:28;;;;;;;11.07;9.70;;;;;;;5.86;45.12;98829.97;5012725;27;102740;-70
2022/03/12 02:05:56;;;;;;;11.13;9.93;;;;;;;5.68;45.59;98831.69;5046289;27;102649;-71
2022/03/12 02:08:24;;;;;;;11.63;9.75;;;;;;;5.65;45.80;98837.94;5022909;27;103302;-70
2022/03/12 02:10:58;;;;;;;11.15;9.65;;;;;;;5.26;46.09;98835.53;5021218;27;103347;-70
2022/03/12 02:13:29;;;;;;;11.18;9.68;;;;;;;4.86;47.46;98835.72;5017534;27;102981;-70
2022/03/12 02:16:08;;;;;;;10.75;9.40;;;;;;;5.16;47.22;98834.28;5018200;27;104035;-70
2022/03/12 02:18:38;;;;;;;10.30;9.30;;;;;;;5.47;46.56;98843.28;5017676;27;103191;-70
2022/03/12 02:21:08;;;;;;;11.50;9.50;;;;;;;5.11;46.76;98828.41;5029112;27;103275;-70
2022/03/12 02:23:47;;;;;;;10.03;9.07;;;;;;;4.87;47.48;98837.44;5022968;27;102635;-70
2022/03/12 02:26:16;;;;;;;10.20;9.23;;;;;;;4.59;47.67;98837.03;5024409;27;103997;-70
2022/03/12 02:28:45;;;;;;;10.75;9.27;;;;;;;4.41;48.66;98837.84;5014848;27;103991;-70
2022/03/12 02:31:15;;;;;;;11.13;9.87;;;;;;;4.68;48.05;98839.22;5024424;27;103295;-70
2022/03/12 02:33:44;;;;;;;12.10;10.38;;;;;;;4.48;48.43;98840.16;5020582;27;103198;-70
2022/03/12 02:36:21;;;;;;;11.47;10.23;;;;;;;4.76;47.73;98850.19;5014996;27;104098;-70
2022/03/12 02:38:54;;;;;;;10.75;9.65;;;;;;;4.85;47.06;98843.69;5014471;27;103150;-70
2022/03/12 02:41:24;;;;;;;11.17;9.87;;;;;;;5.24;46.46;98845.25;5019228;27;103575;-70
2022/03/12 02:43:52;;;;;;;8.75;7.95;;;;;;;5.74;45.70;98855.00;5026214;27;102646;-70
2022/03/12 02:46:29;;;;;;;10.55;9.55;;;;;;;5.22;45.79;98849.69;5016634;27;102736;-70
2022/03/12 02:48:58;;;;;;;10.77;9.32;;;;;;;5.49;46.50;98860.59;5016800;27;104448;-70
2022/03/12 02:51:28;;;;;;;10.55;9.40;;;;;;;4.96;46.69;98849.25;5023201;27;103281;-70
2022/03/12 02:53:57;;;;;;;10.00;9.00;;;;;;;4.77;48.63;98854.50;5015197;27;102566;-71
2022/03/12 02:56:26;;;;;;;9.82;8.65;;;;;;;5.44;47.11;98864.38;5023133;27;103712;-70
2022/03/12 02:58:57;;;;;;;10.43;9.10;;;;;;;5.80;45.67;98865.19;5018991;27;104007;-70
2022/03/12 03:01:26;;;;;;;10.15;9.15;;;;;;;4.97;47.29;98859.63;5015056;27;103479;-71
2022/03/12 03:03:56;;;;;;;11.60;9.75;;;;;;;4.64;47.66;98861.22;5022650;27;102911;-70
2022/03/12 03:06:24;;;;;;;10.63;9.57;;;;;;;4.63;48.25;98864.75;5016679;27;102926;-71
2022/03/12 03:08:52;;;;;;;10.70;9.60;;;;;;;4.78;47.36;98865.81;5021980;27;103332;-70
2022/03/12 03:11:21;;;;;;;10.75;9.65;;;;;;;4.39;48.68;98871.09;5017334;27;103235;-70
2022/03/12 03:13:54;;;;;;;9.77;8.88;;;;;;;4.66;48.07;98869.84;5021655;27;103008;-70
2022/03/12 03:16:25;;;;;;;10.32;9.32;;;;;;;4.96;47.90;98868.44;5016795;27;102769;-70
2022/03/12 03:18:54;;;;;;;11.35;9.48;;;;;;;5.26;46.53;98872.22;5024328;27;104305;-70
2022/03/12 03:21:26;;;;;;;10.47;9.37;;;;;;;5.62;45.92;98873.94;5014588;27;103203;-70
2022/03/12 03:23:54;;;;;;;11.70;10.50;;;;;;;5.16;46.58;98870.97;5022834;27;102888;-70
2022/03/12 03:26:49;;;;;;;11.00;9.90;;;;;;;5.16;46.72;98872.72;5021030;27;103598;-70
2022/03/12 03:29:20;;;;;;;10.67;9.60;;;;;;;5.28;46.26;98873.91;5023691;27;103011;-70
2022/03/12 03:31:49;;;;;;;9.88;8.70;;;;;;;5.84;45.76;98890.28;5015473;27;103175;-70
2022/03/12 03:34:17;;;;;;;9.88;8.98;;;;;;;5.83;45.35;98891.25;5015172;27;102969;-70
2022/03/12 03:36:45;;;;;;;8.00;7.22;;;;;;;6.19;44.78;98885.94;5020594;27;104234;-70
2022/03/12 03:39:14;;;;;;;8.73;7.82;;;;;;;6.32;44.66;98886.97;5020311;27;103829;-70
2022/03/12 03:41:49;;;;;;;9.27;8.40;;;;;;;6.13;44.79;98892.34;5022318;27;104131;-70
2022/03/12 03:44:26;;;;;;;9.80;8.80;;;;;;;6.14;44.54;98893.19;5020247;27;102641;-70
2022/03/12 03:46:55;;;;;;;11.32;9.23;;;;;;;5.92;44.78;98892.59;5021982;27;103020;-70
2022/03/12 03:49:24;;;;;;;9.77;8.90;;;;;;;5.56;45.68;98892.59;5014671;27;103990;-70
2022/03/12 03:51:52;;;;;;;11.17;9.80;;;;;;;5.42;45.93;98892.44;5022989;27;103183;-70
2022/03/12 03:54:20;;;;;;;11.35;10.15;;;;;;;5.20;46.45;98896.06;5022429;27;102755;-71
2022/03/12 03:56:50;;;;;;;11.38;10.10;;;;;;;5.46;45.85;98893.97;5019354;27;102737;-70
2022/03/12 03:59:18;;;;;;;11.32;10.23;;;;;;;5.36;46.02;98897.97;5015120;27;103219;-71
2022/03/12 04:01:47;;;;;;;10.35;9.13;;;;;;;4.74;47.31;98891.28;5011784;27;103854;-70
2022/03/12 04:04:15;;;;;;;10.25;9.15;;;;;;;4.51;48.12;98907.19;5016595;27;102804;-70
2022/03/12 04:06:43;;;;;;;11.03;9.63;;;;;;;4.50;48.14;98905.47;5010511;27;102873;-70
2022/03/12 04:09:11;;;;;;;10.20;9.13;;;;;;;4.67;48.02;98900.31;5019924;27;103369;-70
2022/03/12 04:11:39;;;;;;;10.45;9.38;;;;;;;4.76;47.75;98906.91;5015561;27;103391;-71
2022/03/12 04:14:09;;;;;;;9.93;8.90;;;;;;;4.89;47.49;98902.81;5020819;27;102611;-70
2022/03/12 04:16:37;;;;;;;9.33;8.30;;;;;;;4.94;47.35;98899.06;5014747;27;102802;-70
2022/03/12 04:19:05;;;;;;;9.77;8.77;;;;;;;4.94;47.18;98901.66;5016424;27;103420;-70
2022/03/12 04:21:33;;;;;;;10.15;8.73;;;;;;;4.58;48.18;98908.59;5016550;27;103204;-70
2022/03/12 04:24:02;;;;;;;9.57;8.67;;;;;;;5.09;47.18;98900.97;5021412;27;102625;-71
2022/03/12 04:26:35;;;;;;;13.48;11.82;;;;;;;4.99;47.09;98894.47;5020561;27;103229;-70
2022/03/12 04:29:04;;;;;;;16.52;13.25;;;;;;;4.27;48.58;98903.00;5023879;27;103653;-70
2022/03/12 04:31:34;;;;;;;11.60;10.05;;;;;;;4.27;48.67;98900.41;5013333;27;103360;-70
2022/03/12 04:34:02;;;;;;;10.77;9.13;;;;;;;4.22;48.76;98899.75;5019920;27;102796;-70
2022/03/12 04:36:30;;;;;;;10.02;9.02;;;;;;;4.24;48.39;98909.22;5018303;27;102857;-70
2022/03/12 04:38:58;;;;;;;10.15;9.07;;;;;;;3.99;49.33;98906.81;5019842;27;104006;-70
2022/03/12 04:41:35;;;;;;;10.60;9.50;;;;;;;4.02;49.52;98904.06;5017630;27;103273;-71
2022/03/12 04:44:06;;;;;;;9.87;8.87;;;;;;;4.06;48.72;98910.88;5025613;27;102509;-70
2022/03/12 04:46:38;;;;;;;9.27;8.38;;;;;;;4.47;48.19;98919.53;5019521;27;104111;-70
2022/03/12 04:49:05;;;;;;;9.95;8.93;;;;;;;4.19;48.36;98918.19;5026647;27;103547;-70
2022/03/12 04:51:33;;;;;;;9.68;8.73;;;;;;;4.09;48.84;98923.84;5023548;27;103210;-71
2022/03/12 04:54:02;;;;;;;10.73;8.90;;;;;;;3.87;49.48;98925.66;5024843;27;104233;-70
2022/03/12 04:56:32;;;;;;;9.77;8.80;;;;;;;3.60;49.59;98924.16;5019212;27;104040;-70
2022/03/12 04:59:00;;;;;;;10.20;9.10;;;;;;;3.57;50.62;98928.66;5021296;27;103611;-70
2022/03/12 05:01:29;;;;;;;10.48;8.60;;;;;;;3.68;49.98;98934.31;5011897;27;103248;-71
2022/03/12 05:03:58;;;;;;;10.32;9.18;;;;;;;3.82;49.76;98932.81;5017856;27;103116;-70
2022/03/12 05:06:27;;;;;;;9.50;8.45;;;;;;;3.88;49.91;98934.31;5017756;27;104242;-70
2022/03/12 05:08:57;;;;;;;10.85;8.90;;;;;;;3.97;49.14;98934.81;5021390;27;103313;-70
2022/03/12 05:11:25;;;;;;;10.23;8.80;;;;;;;4.39;48.70;98941.72;5021617;27;103209;-70
2022/03/12 05:13:55;;;;;;;9.43;8.45;;;;;;;4.54;47.87;98943.69;5014986;27;102764;-70
2022/03/12 05:16:23;;;;;;;9.75;8.75;;;;;;;4.77;47.68;98946.13;5027581;27;103886;-70
2022/03/12 05:18:51;;;;;;;9.00;8.10;;;;;;;5.14;46.54;98946.13;5021332;27;103691;-71
2022/03/12 05:21:20;;;;;;;9.30;8.32;;;;;;;5.27;46.36;98962.13;5019176;27;104105;-70
2022/03/12 05:23:48;;;;;;;8.03;7.23;;;;;;;5.63;46.30;98962.16;5018271;27;102691;-71
2022/03/12 05:26:16;;;;;;;8.25;7.47;;;;;;;5.78;45.90;98964.88;5018710;27;102736;-71
2022/03/12 05:28:44;;;;;;;7.88;7.07;;;;;;;5.90;45.26;98962.59;5025009;27;103832;-71
2022/03/12 05:31:13;;;;;;;8.60;7.80;;;;;;;5.75;46.83;98962.38;5017966;27;104367;-70
2022/03/12 05:33:41;;;;;;;8.82;8.02;;;;;;;5.84;45.80;98961.94;5020006;27;102918;-71
2022/03/12 05:36:10;;;;;;;9.60;8.63;;;;;;;5.76;45.39;98974.59;5021266;27;103610;-70
2022/03/12 05:38:39;;;;;;;8.73;7.80;;;;;;;6.03;45.48;98979.44;5025189;27;103287;-70
2022/03/12 05:41:11;;;;;;;8.05;7.35;;;;;;;6.13;45.22;98976.28;5021769;27;103653;-71
2022/03/12 05:43:43;;;;;;;8.65;7.85;;;;;;;6.05;45.12;98975.81;5014861;27;102608;-71
2022/03/12 05:46:12;;;;;;;10.33;9.33;;;;;;;5.64;46.42;98976.97;5021395;27;102784;-71
2022/03/12 05:48:40;;;;;;;12.35;8.82;;;;;;;5.17;46.88;98977.41;5017829;27;103935;-71
2022/03/12 05:51:09;;;;;;;10.07;9.07;;;;;;;4.56;49.54;98988.94;5026135;27;105100;-70
2022/03/12 05:53:39;;;;;;;11.27;9.60;;;;;;;4.44;49.81;98992.06;5021553;27;102857;-70
2022/03/12 05:56:07;;;;;;;10.88;9.77;;;;;;;4.05;50.55;98987.63;5026224;27;102745;-71
2022/03/12 05:58:38;;;;;;;10.57;9.00;;;;;;;4.04;50.65;98985.91;5019998;27;103666;-71
2022/03/12 06:01:06;;;;;;;9.77;8.70;;;;;;;4.70;48.85;98994.41;5022052;27;103480;-70
2022/03/12 06:03:34;;;;;;;9.70;8.80;;;;;;;4.68;49.04;98991.88;5019986;27;102886;-71
2022/03/12 06:06:03;;;;;;;11.18;9.32;;;;;;;4.04;49.42;98996.38;5022283;27;103008;-70
2022/03/12 06:08:34;;;;;;;13.20;8.82;;;;;;;3.99;49.72;98998.31;5013123;27;103126;-71
2022/03/12 06:11:04;;;;;;;11.45;9.20;;;;;;;4.37;49.00;98998.50;5019788;27;103261;-70
2022/03/12 06:13:32;;;;;;;10.07;8.93;;;;;;;4.60;48.44;98998.38;5020916;27;103793;-74
2022/03/12 06:16:02;;;;;;;9.60;8.70;;;;;;;4.30;49.28;99003.13;5018143;27;102849;-74
2022/03/12 06:18:33;;;;;;;10.05;8.90;;;;;;;4.65;49.03;99006.84;5019125;27;103528;-71
2022/03/12 06:21:02;;;;;;;11.27;9.10;;;;;;;4.67;49.02;99003.25;5016272;27;102756;-70
2022/03/12 06:23:30;;;;;;;9.75;8.77;;;;;;;4.47;49.00;99007.63;5024374;27;102617;-71
2022/03/12 06:26:02;;;;;;;10.48;9.43;;;;;;;4.53;48.94;99010.00;5020584;27;103878;-72
2022/03/12 06:28:33;;;;;;;10.93;9.68;;;;;;;4.75;49.23;99007.28;5020286;27;103321;-72
2022/03/12 06:31:01;;;;;;;10.20;9.20;;;;;;;5.02;48.34;99000.84;5016066;27;103312;-72
2022/03/12 06:33:32;;;;;;;10.60;9.50;;;;;;;4.99;48.36;99004.47;5020414;27;103061;-70
2022/03/12 06:36:01;;;;;;;11.23;9.68;;;;;;;5.10;48.88;99007.44;5021477;27;104070;-72
2022/03/12 06:38:30;;;;;;;9.90;8.88;;;;;;;5.62;47.22;99010.25;5019188;27;103229;-71
2022/03/12 06:40:58;;;;;;;8.95;8.05;;;;;;;6.10;46.61;99017.53;5018813;27;103752;-70
2022/03/12 06:43:28;;;;;;;8.40;7.65;;;;;;;6.46;46.18;99023.59;5013506;27;102961;-70
2022/03/12 06:46:02;;;;;;;11.02;9.95;;;;;;;6.20;45.67;99022.25;5016907;27;103641;-71
2022/03/12 06:48:32;;;;;;;11.15;10.05;;;;;;;6.37;45.47;99017.03;5017772;27;103223;-70
2022/03/12 06:51:00;;;;;;;11.27;9.95;;;;;;;5.70;46.27;99016.81;5010243;27;103421;-71
2022/03/12 06:53:28;;;;;;;10.75;9.50;;;;;;;5.98;46.43;99011.13;5022787;27;102609;-70
2022/03/12 06:55:59;;;;;;;10.33;9.33;;;;;;;6.08;46.11;99011.53;5017712;27;104070;-70
2022/03/12 06:58:27;;;;;;;11.00;9.90;;;;;;;6.24;45.38;99009.84;5019376;27;103741;-70
2022/03/12 07:00:56;;;;;;;10.30;9.32;;;;;;;5.99;46.06;99025.09;5019151;27;103233;-70
2022/03/12 07:03:25;;;;;;;11.05;9.52;;;;;;;6.11;45.20;99019.25;5020987;27;102657;-70
2022/03/12 07:05:53;;;;;;;9.90;8.80;;;;;;;6.55;45.06;99025.75;5012940;27;103547;-70
2022/03/12 07:08:22;;;;;;;10.37;9.30;;;;;;;6.49;44.32;99022.56;5013813;27;103679;-70
2022/03/12 07:10:50;;;;;;;9.15;8.23;;;;;;;6.73;44.31;99026.59;5019904;27;103857;-70
2022/03/12 07:13:18;;;;;;;8.48;7.75;;;;;;;7.13;43.76;99028.00;5017403;27;103208;-68
2022/03/12 07:15:46;;;;;;;10.83;9.70;;;;;;;6.85;43.70;99025.94;5019489;27;102777;-69
2022/03/12 07:18:16;;;;;;;9.93;8.93;;;;;;;6.77;44.11;99025.50;5018975;27;104068;-70
2022/03/12 07:20:44;;;;;;;10.07;9.17;;;;;;;7.29;43.21;99029.72;5016190;27;103263;-70
2022/03/12 07:23:12;;;;;;;11.07;9.88;;;;;;;6.79;43.51;99024.47;5014105;27;102690;-70
2022/03/12 07:25:42;;;;;;;13.40;9.63;;;;;;;6.98;43.02;99032.28;5005123;27;103135;-70
2022/03/12 07:28:16;;;;;;;10.55;9.27;;;;;;;7.42;42.25;99028.09;5010468;27;104058;-70
2022/03/12 07:30:46;;;;;;;10.93;9.20;;;;;;;7.19;42.62;99028.50;5020533;27;103291;-70
2022/03/12 07:33:16;;;;;;;8.80;7.93;;;;;;;7.95;42.18;99030.41;5014982;27;102718;-70
2022/03/12 07:35:44;;;;;;;11.02;8.77;;;;;;;8.14;42.08;99031.03;5016737;27;104441;-70
2022/03/12 07:38:13;;;;;;;10.02;9.02;;;;;;;7.95;41.60;99030.41;5014391;27;104112;-70
2022/03/12 07:40:41;;;;;;;10.27;8.50;;;;;;;8.28;41.41;99027.66;5022662;27;103184;-71
2022/03/12 07:43:09;;;;;;;9.90;9.00;;;;;;;8.49;41.84;99031.69;5018916;27;102981;-70
2022/03/12 07:45:37;;;;;;;10.50;9.40;;;;;;;8.64;41.62;99030.78;5015600;27;104125;-70
2022/03/12 07:48:07;;;;;;;10.10;9.10;;;;;;;8.67;41.01;99029.75;5014522;27;103297;-70
2022/03/12 07:50:58;;;;;;;10.63;9.53;;;;;;;8.51;41.24;99032.44;5014398;27;104061;-69
2022/03/12 07:53:26;;;;;;;10.20;9.07;;;;;;;9.03;40.58;99032.81;5018183;27;102853;-76
2022/03/12 07:55:54;;;;;;;11.00;9.90;;;;;;;9.15;39.98;99031.22;5022342;27;103257;-71
2022/03/12 07:58:27;;;;;;;9.48;8.68;;;;;;;9.65;40.11;99026.28;5017433;27;103312;-70
2022/03/12 08:00:57;;;;;;;9.70;8.80;;;;;;;9.56;39.80;99026.84;5010784;27;103188;-71
2022/03/12 08:03:25;;;;;;;10.30;9.30;;;;;;;8.79;39.44;99022.88;5023848;27;102537;-69
2022/03/12 08:05:54;;;;;;;10.00;9.10;;;;;;;9.60;39.71;99027.53;5017149;27;103222;-74
2022/03/12 08:08:23;;;;;;;10.02;9.02;;;;;;;9.88;38.53;99025.63;5018974;27;104128;-76
2022/03/12 08:13:40;;;;;;;11.60;9.77;;;;;;;10.32;38.26;99011.38;5011906;27;102776;-68
2022/03/12 08:16:09;;;;;;;10.35;9.35;;;;;;;10.77;37.81;99018.88;5013393;27;104126;-68
2022/03/12 08:18:39;;;;;;;10.90;9.77;;;;;;;10.02;38.10;99011.53;5018445;27;104369;-69
2022/03/12 08:21:07;;;;;;;12.50;9.87;;;;;;;10.26;38.47;99015.28;5014029;27;103260;-69
2022/03/12 08:23:36;;;;;;;11.90;10.25;;;;;;;10.47;38.20;99015.63;5011697;27;103088;-69
2022/03/12 08:26:05;;;;;;;13.27;10.50;;;;;;;10.68;38.43;99019.47;5022019;27;102742;-69
2022/03/12 08:28:34;;;;;;;11.33;10.20;;;;;;;10.49;38.31;99019.03;5017407;27;104301;-69
2022/03/12 08:31:02;;;;;;;12.10;10.52;;;;;;;10.84;37.58;99014.84;5016019;27;103202;-70
2022/03/12 08:33:30;;;;;;;12.48;10.32;;;;;;;10.89;37.97;99028.56;5015584;27;102740;-69
2022/03/12 08:35:59;;;;;;;11.25;10.07;;;;;;;11.36;37.59;99017.38;5020822;27;102662;-73
2022/03/12 08:38:26;;;;;;;11.80;10.57;;;;;;;11.44;36.25;99025.63;5017672;27;103249;-69
2022/03/12 08:40:56;;;;;;;11.43;10.38;;;;;;;11.69;36.72;99022.09;5017046;27;103195;-69
2022/03/12 08:43:24;;;;;;;11.35;10.25;;;;;;;12.11;36.72;99016.34;5016379;27;102575;-69
2022/03/12 08:45:54;;;;;;;12.53;11.23;;;;;;;11.94;36.38;99026.44;5018833;27;104203;-69
2022/03/12 08:48:22;;;;;;;12.23;11.03;;;;;;;12.11;36.34;99018.97;5011101;27;104258;-69
2022/03/12 08:50:50;;;;;;;11.20;10.10;;;;;;;12.09;36.86;99022.69;5015394;27;103410;-69
2022/03/12 08:53:20;;;;;;;11.80;10.60;;;;;;;12.85;36.03;99023.13;5019213;27;103041;-69
2022/03/12 08:55:51;;;;;;;10.60;9.60;;;;;;;13.60;34.94;99015.47;5013445;27;104199;-69
2022/03/12 08:58:23;;;;;;;12.10;10.90;;;;;;;13.64;34.24;99014.28;5013505;27;104322;-69
2022/03/12 09:00:53;;;;;;;12.00;10.82;;;;;;;12.86;35.60;99015.97;5015619;27;103195;-71
2022/03/12 09:03:22;;;;;;;12.27;10.98;;;;;;;12.96;35.74;99015.19;5020116;27;102785;-71
2022/03/12 09:05:51;;;;;;;11.95;10.63;;;;;;;13.58;34.98;99018.25;5021617;27;103922;-69
2022/03/12 09:08:22;;;;;;;12.75;10.93;;;;;;;12.80;35.28;99017.28;5020723;27;104209;-69
2022/03/12 09:10:50;;;;;;;11.55;10.48;;;;;;;13.55;35.47;99020.31;5015947;27;103373;-68
2022/03/12 09:13:20;;;;;;;13.07;11.20;;;;;;;13.13;35.19;99022.72;5018185;27;102857;-69
2022/03/12 09:15:48;;;;;;;12.25;10.98;;;;;;;13.56;35.83;99017.50;5014654;27;103804;-69
2022/03/12 09:18:17;;;;;;;13.20;11.80;;;;;;;13.27;35.62;99019.84;5018953;27;103590;-69
2022/03/12 09:20:47;;;;;;;13.27;11.27;;;;;;;14.10;34.74;99014.88;5016389;27;104108;-69
2022/03/12 09:23:16;;;;;;;12.70;11.50;;;;;;;13.56;34.48;99012.19;5012615;27;102813;-69
2022/03/12 09:25:44;;;;;;;13.02;11.73;;;;;;;14.14;34.74;99010.19;5019133;27;103777;-69
2022/03/12 09:28:13;;;;;;;14.13;11.32;;;;;;;14.04;36.44;99015.38;5015727;27;104148;-69
2022/03/12 09:30:43;;;;;;;11.65;10.55;;;;;;;14.52;33.89;99027.34;5014592;27;103180;-69
2022/03/12 09:33:11;;;;;;;14.43;11.45;;;;;;;14.03;33.09;99019.03;5008078;27;102682;-69
2022/03/12 09:35:39;;;;;;;12.73;11.32;;;;;;;12.25;35.22;99017.09;5024729;27;103772;-69
2022/03/12 09:38:07;;;;;;;13.05;11.85;;;;;;;13.97;35.11;99016.88;5025230;27;103707;-69
2022/03/12 09:40:35;;;;;;;12.55;11.25;;;;;;;14.87;33.80;99020.88;5020006;27;103197;-69
2022/03/12 09:43:08;;;;;;;13.23;11.93;;;;;;;15.09;34.07;99010.09;5030025;27;103730;-69
2022/03/12 09:45:37;;;;;;;13.40;12.10;;;;;;;14.43;33.20;99011.28;5019669;27;103635;-69
2022/03/12 09:48:08;;;;;;;14.68;12.23;;;;;;;14.41;33.83;99014.09;5022714;27;104185;-69
2022/03/12 09:50:39;;;;;;;13.15;11.95;;;;;;;14.97;33.47;99005.81;5017916;27;103143;-69
2022/03/12 09:53:07;;;;;;;13.90;12.30;;;;;;;14.73;32.88;99007.91;5019490;27;103039;-70
2022/03/12 09:55:35;;;;;;;13.70;12.27;;;;;;;14.85;32.83;99001.56;5023914;27;102893;-70
2022/03/12 09:58:03;;;;;;;13.60;12.30;;;;;;;14.78;33.34;98995.91;5015427;27;104179;-70
2022/03/12 10:00:31;;;;;;;13.60;12.30;;;;;;;13.82;33.66;98995.03;5020700;27;103264;-70
2022/03/12 10:02:59;;;;;;;15.32;13.35;;;;;;;13.27;34.54;98993.31;5018685;27;105865;-70
2022/03/12 10:05:28;;;;;;;13.55;12.10;;;;;;;14.52;33.78;98998.09;5023490;27;103854;-70
2022/03/12 10:07:57;;;;;;;13.57;12.32;;;;;;;14.90;33.25;98994.88;5015190;27;103689;-70
2022/03/12 10:10:25;;;;;;;14.80;13.30;;;;;;;14.14;33.34;98994.22;5021440;27;103151;-70
2022/03/12 10:12:53;;;;;;;14.75;13.32;;;;;;;14.56;33.79;98989.84;5014428;27;102757;-70
2022/03/12 10:15:28;;;;;;;15.32;13.68;;;;;;;13.74;33.70;98986.84;5016431;27;102675;-70
2022/03/12 10:17:57;;;;;;;14.73;13.40;;;;;;;13.95;34.26;98989.56;5018710;27;103297;-71
2022/03/12 10:20:25;;;;;;;15.90;14.20;;;;;;;14.10;33.93;98977.69;5021917;27;103165;-71
2022/03/12 10:22:55;;;;;;;15.65;14.10;;;;;;;13.91;34.34;98974.84;5025331;27;102924;-70
2022/03/12 10:25:24;;;;;;;16.02;14.48;;;;;;;14.75;33.24;98979.34;5019929;27;102673;-71
2022/03/12 10:27:52;;;;;;;14.27;13.00;;;;;;;15.49;33.91;98968.44;5016674;27;104071;-70
2022/03/12 10:30:19;;;;;;;16.60;14.90;;;;;;;14.46;33.45;98973.81;5020586;27;103183;-71
2022/03/12 10:32:48;;;;;;;15.50;14.13;;;;;;;15.42;33.11;98975.22;5011278;27;103142;-71
2022/03/12 10:35:19;;;;;;;16.13;14.52;;;;;;;15.10;33.37;98974.53;5021542;27;103351;-70
2022/03/12 10:37:49;;;;;;;16.15;14.30;;;;;;;15.81;33.01;98960.22;5014934;27;103382;-70
2022/03/12 10:40:21;;;;;;;15.80;14.02;;;;;;;13.54;34.79;98960.19;5017412;27;103322;-70
2022/03/12 10:42:51;;;;;;;15.20;13.82;;;;;;;15.15;33.87;98955.50;5018948;27;102610;-71
2022/03/12 10:45:21;;;;;;;16.02;14.48;;;;;;;15.57;33.49;98946.44;5015689;27;103470;-71
2022/03/12 10:47:53;;;;;;;14.97;13.63;;;;;;;15.94;32.68;98947.50;5018926;27;104040;-70
2022/03/12 10:50:25;;;;;;;14.73;13.37;;;;;;;15.74;33.28;98947.59;5012097;27;103251;-71
2022/03/12 10:52:55;;;;;;;14.88;13.55;;;;;;;16.32;32.97;98944.00;5021058;27;102660;-71
2022/03/12 10:55:28;;;;;;;15.15;13.63;;;;;;;16.06;33.04;98937.53;5020407;27;103945;-70
2022/03/12 10:58:02;;;;;;;15.60;14.10;;;;;;;15.80;33.56;98941.72;5017618;27;103447;-71
2022/03/12 11:00:32;;;;;;;15.30;14.00;;;;;;;16.58;32.91;98934.47;5018082;27;102973;-71
2022/03/12 11:03:03;;;;;;;14.15;12.85;;;;;;;16.84;33.06;98934.69;5024920;27;102668;-71
2022/03/12 11:05:34;;;;;;;15.47;14.00;;;;;;;16.70;32.82;98938.63;5016374;27;102973;-71
2022/03/12 11:08:15;;;;;;;15.07;13.43;;;;;;;15.47;33.96;98946.41;5020996;27;103631;-71
2022/03/12 11:10:48;;;;;;;14.88;13.43;;;;;;;14.05;36.08;98942.69;5018589;27;103191;-71
2022/03/12 11:13:32;;;;;;;15.20;13.48;;;;;;;14.93;35.36;98941.38;5026926;27;102628;-71
2022/03/12 11:16:15;;;;;;;14.18;12.88;;;;;;;16.25;34.99;98924.22;5013630;27;103678;-71
2022/03/12 11:19:07;;;;;;;14.32;12.95;;;;;;;16.43;34.29;98925.19;5019563;27;103876;-71
2022/03/12 11:21:40;;;;;;;14.40;13.00;;;;;;;15.46;34.86;98931.41;5019149;27;103201;-71
2022/03/12 11:24:15;;;;;;;12.98;11.77;;;;;;;16.32;35.19;98917.34;5017171;27;102841;-71
2022/03/12 11:26:50;;;;;;;13.32;11.93;;;;;;;16.72;35.34;98926.00;5022766;27;103783;-71
2022/03/12 11:29:19;;;;;;;13.30;12.00;;;;;;;16.87;34.83;98917.56;5017797;27;103977;-71
2022/03/12 11:31:49;;;;;;;13.65;12.45;;;;;;;16.01;35.29;98913.13;5016277;27;104334;-71
2022/03/12 11:34:23;;;;;;;14.20;12.80;;;;;;;16.23;35.68;98912.84;5019867;27;102757;-71
2022/03/12 11:37:09;;;;;;;14.05;12.70;;;;;;;15.37;36.10;98907.38;5024676;27;103699;-70